Terminal Aerodrome Forecast
Issued by NWS

Home | Current Version | Previous Version | Graphics & Text | Print | Product List | Glossary On
Versions: 1 2 3 4 5 6 7 8 9 10 11 12 13 14 15 16 17
519
FTUS43 KMPX 041139
TAFAXN
TAF
KAXN 041139Z 0412/0512 19012KT 3SM -SN BR OVC003
     FM041600 22010KT P6SM OVC006
     FM042100 26011KT P6SM OVC015
     FM050300 23008KT P6SM SCT025 OVC060
     FM050900 17008KT P6SM BKN040=

USA.gov is the U.S. government's official web portal to all federal, state and local government web resources and services.